createdAt,value
2019-03-27T00:00:16.008Z,102716.91
2019-03-27T00:01:23.531Z,102715.26
2019-03-27T00:02:31.375Z,102719.13
2019-03-27T00:03:38.841Z,102714.80
2019-03-27T00:04:46.681Z,102716.48
2019-03-27T00:05:54.217Z,102716.06
2019-03-27T00:07:02.401Z,102718.22
2019-03-27T00:08:10.396Z,102717.80
2019-03-27T00:09:17.964Z,102714.64
2019-03-27T00:10:25.780Z,102711.16
2019-03-27T00:11:33.313Z,102711.06
2019-03-27T00:12:40.992Z,102710.39
2019-03-27T00:13:48.501Z,102711.59
2019-03-27T00:14:55.960Z,102712.50
2019-03-27T00:16:03.863Z,102712.45
2019-03-27T00:17:12.143Z,102715.52
2019-03-27T00:18:19.668Z,102713.03
2019-03-27T00:19:27.229Z,102708.42
2019-03-27T00:20:34.758Z,102715.71
2019-03-27T00:21:42.558Z,102712.22
2019-03-27T00:22:50.419Z,102716.84
2019-03-27T00:24:01.259Z,102721.13
2019-03-27T00:25:09.792Z,102717.21
2019-03-27T00:26:17.529Z,102721.92
2019-03-27T00:27:25.673Z,102712.93
2019-03-27T00:28:33.437Z,102715.42
2019-03-27T00:29:41.212Z,102713.30
2019-03-27T00:30:49.099Z,102711.59
2019-03-27T00:31:57.050Z,102710.66
2019-03-27T00:33:05.061Z,102714.84
2019-03-27T00:34:12.956Z,102712.77
2019-03-27T00:35:20.743Z,102707.23
2019-03-27T00:36:28.350Z,102703.83
2019-03-27T00:37:36.761Z,102701.98
2019-03-27T00:38:44.652Z,102712.95
2019-03-27T00:39:52.381Z,102714.64
2019-03-27T00:41:00.602Z,102715.59
2019-03-27T00:42:09.209Z,102715.17
2019-03-27T00:43:17.238Z,102716.42
2019-03-27T00:44:25.128Z,102711.68
2019-03-27T00:45:33.159Z,102709.51
2019-03-27T00:46:41.026Z,102712.30
2019-03-27T00:47:48.488Z,102710.79
2019-03-27T00:48:56.241Z,102709.08
2019-03-27T00:50:03.741Z,102709.47
2019-03-27T00:51:11.553Z,102707.77
2019-03-27T00:52:19.079Z,102708.03
2019-03-27T00:53:26.868Z,102710.16
2019-03-27T00:54:34.728Z,102708.88
2019-03-27T00:55:42.798Z,102709.30
2019-03-27T00:56:50.604Z,102708.89
2019-03-27T00:57:58.066Z,102708.88
2019-03-27T00:59:06.836Z,102698.98
2019-03-27T01:00:26.563Z,102698.09
2019-03-27T01:01:34.055Z,102702.42
2019-03-27T01:02:41.559Z,102698.24
2019-03-27T01:03:49.088Z,102702.52
2019-03-27T01:04:56.599Z,102703.64
2019-03-27T01:06:04.713Z,102694.53
2019-03-27T01:07:12.173Z,102698.71
2019-03-27T01:08:20.026Z,102698.50
2019-03-27T01:09:27.950Z,102693.33
2019-03-27T01:10:35.440Z,102695.86
2019-03-27T01:11:42.902Z,102698.98
2019-03-27T01:12:50.430Z,102697.92
2019-03-27T01:13:58.186Z,102695.44
2019-03-27T01:15:06.232Z,102695.07
2019-03-27T01:16:13.765Z,102697.34
2019-03-27T01:17:21.269Z,102691.36
2019-03-27T01:18:28.734Z,102690.94
2019-03-27T01:19:36.218Z,102695.48
2019-03-27T01:20:43.785Z,102702.52
2019-03-27T01:21:51.209Z,102694.48
2019-03-27T01:22:59.216Z,102690.20
2019-03-27T01:24:07.003Z,102695.23
2019-03-27T01:25:14.800Z,102694.48
2019-03-27T01:26:22.276Z,102694.58
2019-03-27T01:27:30.255Z,102697.28
2019-03-27T01:28:37.871Z,102695.81
2019-03-27T01:29:45.374Z,102696.44
2019-03-27T01:30:53.159Z,102691.91
2019-03-27T01:32:00.660Z,102695.98
2019-03-27T01:33:08.176Z,102694.39
2019-03-27T01:34:15.766Z,102694.11
2019-03-27T01:35:23.329Z,102694.21
2019-03-27T01:36:30.854Z,102690.16
2019-03-27T01:37:38.760Z,102693.28
2019-03-27T01:38:46.599Z,102692.53
2019-03-27T01:39:54.129Z,102695.20
2019-03-27T01:41:01.622Z,102698.35
2019-03-27T01:42:10.480Z,102703.11
2019-03-27T01:43:18.345Z,102700.52
2019-03-27T01:44:26.081Z,102702.64
2019-03-27T01:45:33.585Z,102694.25
2019-03-27T01:46:41.391Z,102690.77
2019-03-27T01:47:48.863Z,102690.21
2019-03-27T01:48:56.681Z,102688.39
2019-03-27T01:50:04.432Z,102692.38
2019-03-27T01:51:11.961Z,102697.50
2019-03-27T01:52:19.427Z,102697.08
2019-03-27T01:53:26.928Z,102698.45
2019-03-27T01:54:34.785Z,102698.02
2019-03-27T01:55:42.767Z,102696.19
2019-03-27T01:56:50.198Z,102698.27
2019-03-27T01:57:57.705Z,102701.66
2019-03-27T01:59:05.177Z,102700.98
2019-03-27T02:00:13.292Z,102703.67
2019-03-27T02:01:20.924Z,102705.03
2019-03-27T02:02:28.656Z,102699.06
2019-03-27T02:03:37.201Z,102700.33
2019-03-27T02:04:44.683Z,102707.45
2019-03-27T02:05:52.504Z,102704.09
2019-03-27T02:07:00.007Z,102700.66
2019-03-27T02:08:07.534Z,102704.53
2019-03-27T02:09:15.018Z,102709.19
2019-03-27T02:10:22.847Z,102706.09
2019-03-27T02:11:30.604Z,102703.54
2019-03-27T02:12:38.141Z,102704.76
2019-03-27T02:13:45.606Z,102707.73
2019-03-27T02:14:53.092Z,102698.27
2019-03-27T02:16:07.054Z,102705.47
2019-03-27T02:17:10.458Z,102706.41
2019-03-27T02:18:17.955Z,102701.33
2019-03-27T02:19:26.088Z,102700.00
2019-03-27T02:20:34.338Z,102709.28
2019-03-27T02:21:42.266Z,102703.30
2019-03-27T02:22:49.778Z,102699.02
2019-03-27T02:23:57.578Z,102701.89
2019-03-27T02:25:05.369Z,102704.58
2019-03-27T02:26:13.916Z,102700.57
2019-03-27T02:27:21.523Z,102700.47
2019-03-27T02:28:29.385Z,102700.78
2019-03-27T02:29:36.853Z,102702.81
2019-03-27T02:30:44.665Z,102701.11
2019-03-27T02:31:52.566Z,102698.63
2019-03-27T02:33:00.028Z,102695.09
2019-03-27T02:34:07.625Z,102697.16
2019-03-27T02:35:15.475Z,102702.52
2019-03-27T02:36:23.401Z,102705.31
2019-03-27T02:37:30.845Z,102703.53
2019-03-27T02:38:38.313Z,102707.55
2019-03-27T02:39:45.779Z,102697.50
2019-03-27T02:40:53.318Z,102699.68
2019-03-27T02:42:01.241Z,102695.60
2019-03-27T02:43:09.323Z,102701.90
2019-03-27T02:44:16.919Z,102699.66
2019-03-27T02:45:24.397Z,102697.48
2019-03-27T02:46:32.003Z,102693.74
2019-03-27T02:47:39.451Z,102698.45
2019-03-27T02:48:47.234Z,102698.56
2019-03-27T02:49:54.722Z,102696.88
2019-03-27T02:51:02.234Z,102697.77
2019-03-27T02:52:09.713Z,102697.87
2019-03-27T02:53:17.670Z,102702.69
2019-03-27T02:54:25.868Z,102695.55
2019-03-27T02:55:34.129Z,102696.92
2019-03-27T02:56:41.614Z,102697.34
2019-03-27T02:57:49.396Z,102696.92
2019-03-27T02:58:56.918Z,102697.30
2019-03-27T03:00:05.321Z,102694.53
2019-03-27T03:01:12.823Z,102686.45
2019-03-27T03:02:20.706Z,102695.80
2019-03-27T03:03:28.264Z,102697.39
2019-03-27T03:04:36.136Z,102699.88
2019-03-27T03:05:44.065Z,102699.98
2019-03-27T03:06:52.289Z,102703.80
2019-03-27T03:08:00.564Z,102703.47
2019-03-27T03:09:09.011Z,102706.97
2019-03-27T03:10:17.136Z,102704.76
2019-03-27T03:11:24.621Z,102704.22
2019-03-27T03:12:32.337Z,102715.59
2019-03-27T03:13:39.832Z,102705.38
2019-03-27T03:14:47.605Z,102702.27
2019-03-27T03:15:55.066Z,102707.29
2019-03-27T03:17:02.596Z,102703.47
2019-03-27T03:18:10.384Z,102709.03
2019-03-27T03:19:17.881Z,102711.77
2019-03-27T03:20:25.383Z,102713.88
2019-03-27T03:21:32.854Z,102708.08
2019-03-27T03:22:40.730Z,102715.25
2019-03-27T03:23:48.301Z,102715.27
2019-03-27T03:24:55.768Z,102718.33
2019-03-27T03:26:03.650Z,102721.05
2019-03-27T03:27:11.580Z,102712.27
2019-03-27T03:28:19.423Z,102721.25
2019-03-27T03:29:27.002Z,102716.17
2019-03-27T03:30:34.608Z,102719.88
2019-03-27T03:31:42.123Z,102718.50
2019-03-27T03:32:49.613Z,102716.38
2019-03-27T03:33:57.525Z,102711.52
2019-03-27T03:35:05.254Z,102714.99
2019-03-27T03:36:13.405Z,102714.92
2019-03-27T03:37:20.867Z,102714.28
2019-03-27T03:38:28.351Z,102717.02
2019-03-27T03:39:36.051Z,102722.05
2019-03-27T03:40:43.640Z,102725.00
2019-03-27T03:41:51.507Z,102722.59
2019-03-27T03:42:59.212Z,102730.15
2019-03-27T03:44:06.841Z,102725.80
2019-03-27T03:45:14.992Z,102719.45
2019-03-27T03:46:22.477Z,102725.67
2019-03-27T03:47:30.147Z,102718.91
2019-03-27T03:48:37.960Z,102716.42
2019-03-27T03:49:45.822Z,102713.23
2019-03-27T03:50:56.782Z,102711.11
2019-03-27T03:52:05.124Z,102713.19
2019-03-27T03:53:15.033Z,102711.97
2019-03-27T03:54:23.362Z,102715.61
2019-03-27T03:55:32.544Z,102721.64
2019-03-27T03:56:42.915Z,102710.64
2019-03-27T03:57:51.094Z,102717.78
2019-03-27T03:59:01.258Z,102715.67
2019-03-27T04:00:09.424Z,102720.61
2019-03-27T04:01:20.246Z,102719.13
2019-03-27T04:02:32.614Z,102719.38
2019-03-27T04:03:42.515Z,102710.25
2019-03-27T04:04:52.954Z,102710.37
2019-03-27T04:06:00.435Z,102708.19
2019-03-27T04:07:08.237Z,102709.52
2019-03-27T04:08:15.783Z,102707.36
2019-03-27T04:09:23.625Z,102702.59
2019-03-27T04:10:31.562Z,102705.96
2019-03-27T04:11:39.014Z,102707.30
2019-03-27T04:12:47.317Z,102704.44
2019-03-27T04:13:56.054Z,102715.93
2019-03-27T04:15:03.930Z,102712.34
2019-03-27T04:16:11.452Z,102721.24
2019-03-27T04:17:18.957Z,102715.92
2019-03-27T04:18:26.737Z,102719.89
2019-03-27T04:19:35.015Z,102724.11
2019-03-27T04:20:42.928Z,102721.95
2019-03-27T04:21:50.405Z,102720.00
2019-03-27T04:22:57.886Z,102719.11
2019-03-27T04:24:05.661Z,102720.59
2019-03-27T04:25:13.281Z,102724.40
2019-03-27T04:26:20.782Z,102723.08
2019-03-27T04:27:28.946Z,102727.48
2019-03-27T04:28:36.405Z,102730.92
2019-03-27T04:29:44.721Z,102735.27
2019-03-27T04:30:52.674Z,102737.12
2019-03-27T04:32:00.211Z,102737.50
2019-03-27T04:33:08.044Z,102736.28
2019-03-27T04:34:15.948Z,102735.56
2019-03-27T04:35:23.861Z,102737.35
2019-03-27T04:36:31.745Z,102732.64
2019-03-27T04:37:39.317Z,102736.88
2019-03-27T04:38:47.125Z,102740.30
2019-03-27T04:39:54.632Z,102740.74
2019-03-27T04:41:02.793Z,102739.84
2019-03-27T04:42:10.370Z,102738.46
2019-03-27T04:43:18.659Z,102744.44
2019-03-27T04:44:26.539Z,102737.87
2019-03-27T04:45:34.216Z,102744.99
2019-03-27T04:46:41.720Z,102741.92
2019-03-27T04:47:49.285Z,102745.30
2019-03-27T04:48:57.138Z,102745.25
2019-03-27T04:50:05.043Z,102746.62
2019-03-27T04:51:12.876Z,102750.86
2019-03-27T04:52:20.601Z,102750.45
2019-03-27T04:53:28.104Z,102753.04
2019-03-27T04:54:35.684Z,102753.77
2019-03-27T04:55:43.543Z,102753.27
2019-03-27T04:56:51.405Z,102756.51
2019-03-27T04:57:59.112Z,102753.25
2019-03-27T04:59:07.053Z,102752.27
2019-03-27T05:00:15.230Z,102752.94
2019-03-27T05:01:23.483Z,102751.02
2019-03-27T05:02:31.457Z,102745.45
2019-03-27T05:03:39.305Z,102749.14
2019-03-27T05:04:47.400Z,102745.94
2019-03-27T05:05:54.884Z,102752.50
2019-03-27T05:07:02.353Z,102751.67
2019-03-27T05:08:09.826Z,102752.86
2019-03-27T05:09:17.904Z,102749.44
2019-03-27T05:10:25.393Z,102747.31
2019-03-27T05:11:33.716Z,102743.92
2019-03-27T05:12:41.353Z,102745.98
2019-03-27T05:13:48.843Z,102746.45
2019-03-27T05:14:56.751Z,102747.92
2019-03-27T05:16:04.310Z,102749.86
2019-03-27T05:17:11.832Z,102749.20
2019-03-27T05:18:19.343Z,102747.98
2019-03-27T05:19:26.853Z,102753.84
2019-03-27T05:20:35.138Z,102754.88
2019-03-27T05:21:42.649Z,102756.14
2019-03-27T05:22:51.287Z,102760.72
2019-03-27T05:23:58.905Z,102755.59
2019-03-27T05:25:06.647Z,102761.16
2019-03-27T05:26:14.524Z,102759.34
2019-03-27T05:27:22.040Z,102757.65
2019-03-27T05:28:29.504Z,102755.64
2019-03-27T05:29:37.381Z,102757.58
2019-03-27T05:30:44.955Z,102758.31
2019-03-27T05:31:52.898Z,102757.64
2019-03-27T05:33:00.801Z,102756.39
2019-03-27T05:34:08.440Z,102756.51
2019-03-27T05:35:16.321Z,102757.03
2019-03-27T05:36:23.881Z,102752.46
2019-03-27T05:37:31.761Z,102759.71
2019-03-27T05:38:39.253Z,102756.43
2019-03-27T05:39:46.893Z,102759.16
2019-03-27T05:40:54.372Z,102760.92
2019-03-27T05:42:02.260Z,102764.37
2019-03-27T05:43:10.027Z,102759.93
2019-03-27T05:44:17.547Z,102764.28
2019-03-27T05:45:25.310Z,102765.39
2019-03-27T05:46:33.114Z,102764.59
2019-03-27T05:47:41.054Z,102763.32
2019-03-27T05:48:48.619Z,102769.77
2019-03-27T05:49:56.119Z,102771.48
2019-03-27T05:51:03.647Z,102769.25
2019-03-27T05:52:11.128Z,102765.08
2019-03-27T05:53:19.308Z,102768.15
2019-03-27T05:54:26.793Z,102765.30
2019-03-27T05:55:34.407Z,102769.55
2019-03-27T05:56:42.366Z,102771.64
2019-03-27T05:57:50.361Z,102772.56
2019-03-27T05:58:58.183Z,102771.47
2019-03-27T06:00:06.467Z,102771.69
2019-03-27T06:01:14.859Z,102772.08
2019-03-27T06:02:22.349Z,102769.64
2019-03-27T06:03:30.009Z,102769.79
2019-03-27T06:04:37.456Z,102773.39
2019-03-27T06:05:45.304Z,102773.87
2019-03-27T06:06:52.838Z,102775.03
2019-03-27T06:08:00.615Z,102770.06
2019-03-27T06:09:09.523Z,102772.19
2019-03-27T06:10:17.277Z,102772.48
2019-03-27T06:11:25.111Z,102769.16
2019-03-27T06:12:32.660Z,102769.09
2019-03-27T06:13:40.526Z,102767.41
2019-03-27T06:14:48.035Z,102772.59
2019-03-27T06:15:55.529Z,102771.38
2019-03-27T06:17:03.499Z,102779.48
2019-03-27T06:18:13.323Z,102776.41
2019-03-27T06:19:20.856Z,102780.27
2019-03-27T06:20:28.409Z,102781.17
2019-03-27T06:21:35.921Z,102778.22
2019-03-27T06:22:43.391Z,102781.72
2019-03-27T06:23:50.898Z,102777.44
2019-03-27T06:24:58.372Z,102780.03
2019-03-27T06:26:06.280Z,102774.16
2019-03-27T06:27:13.726Z,102775.53
2019-03-27T06:28:21.283Z,102773.30
2019-03-27T06:29:28.785Z,102769.13
2019-03-27T06:30:36.308Z,102774.75
2019-03-27T06:31:43.848Z,102773.54
2019-03-27T06:32:51.364Z,102774.45
2019-03-27T06:33:58.976Z,102768.22
2019-03-27T06:35:08.169Z,102774.55
2019-03-27T06:36:16.676Z,102774.91
2019-03-27T06:37:24.163Z,102772.39
2019-03-27T06:38:32.004Z,102773.04
2019-03-27T06:39:39.519Z,102777.42
2019-03-27T06:40:47.785Z,102779.73
2019-03-27T06:41:56.031Z,102779.09
2019-03-27T06:43:22.708Z,102775.92
2019-03-27T06:44:30.189Z,102782.23
2019-03-27T06:45:37.727Z,102779.69
2019-03-27T06:46:45.921Z,102778.73
2019-03-27T06:47:53.433Z,102782.59
2019-03-27T06:49:01.260Z,102781.53
2019-03-27T06:50:09.295Z,102777.03
2019-03-27T06:51:16.968Z,102778.48
2019-03-27T06:52:24.737Z,102779.63
2019-03-27T06:53:32.980Z,102784.61
2019-03-27T06:54:40.473Z,102783.70
2019-03-27T06:55:48.781Z,102784.24
2019-03-27T06:56:56.292Z,102785.24
2019-03-27T06:58:04.573Z,102787.16
2019-03-27T06:59:12.394Z,102784.56
2019-03-27T07:00:24.508Z,102786.15
2019-03-27T07:01:32.390Z,102784.52
2019-03-27T07:02:40.261Z,102786.78
2019-03-27T07:03:48.150Z,102780.16
2019-03-27T07:04:55.775Z,102779.83
2019-03-27T07:06:03.277Z,102785.45
2019-03-27T07:07:10.824Z,102783.38
2019-03-27T07:08:18.579Z,102779.19
2019-03-27T07:09:26.114Z,102785.17
2019-03-27T07:10:36.026Z,102786.30
2019-03-27T07:11:43.994Z,102791.90
2019-03-27T07:12:52.495Z,102790.68
2019-03-27T07:14:00.240Z,102794.88
2019-03-27T07:15:08.941Z,102791.16
2019-03-27T07:16:16.450Z,102793.86
2019-03-27T07:17:23.943Z,102790.64
2019-03-27T07:18:40.043Z,102794.77
2019-03-27T07:19:40.729Z,102791.00
2019-03-27T07:20:48.538Z,102797.31
2019-03-27T07:21:56.163Z,102804.24
2019-03-27T07:23:04.048Z,102799.78
2019-03-27T07:24:11.579Z,102799.64
2019-03-27T07:25:19.111Z,102799.73
2019-03-27T07:26:26.637Z,102799.13
2019-03-27T07:27:34.229Z,102809.02
2019-03-27T07:28:42.119Z,102804.30
2019-03-27T07:29:49.653Z,102803.55
2019-03-27T07:30:57.115Z,102805.11
2019-03-27T07:32:04.935Z,102807.75
2019-03-27T07:33:12.474Z,102805.23
2019-03-27T07:34:20.414Z,102814.55
2019-03-27T07:35:27.902Z,102811.30
2019-03-27T07:36:36.958Z,102819.87
2019-03-27T07:37:44.883Z,102813.97
2019-03-27T07:38:53.203Z,102811.86
2019-03-27T07:40:00.728Z,102814.60
2019-03-27T07:41:08.572Z,102815.25
2019-03-27T07:42:16.104Z,102813.43
2019-03-27T07:43:23.857Z,102818.73
2019-03-27T07:44:32.062Z,102818.73
2019-03-27T07:45:39.856Z,102817.51
2019-03-27T07:46:47.359Z,102817.55
2019-03-27T07:47:55.252Z,102818.95
2019-03-27T07:49:02.810Z,102819.30
2019-03-27T07:50:11.173Z,102823.20
2019-03-27T07:51:19.067Z,102819.11
2019-03-27T07:52:26.899Z,102818.69
2019-03-27T07:53:34.445Z,102822.78
2019-03-27T07:54:41.984Z,102822.13
2019-03-27T07:55:49.949Z,102824.84
2019-03-27T07:56:57.521Z,102827.25
2019-03-27T07:58:05.168Z,102827.53
2019-03-27T07:59:13.605Z,102826.45
2019-03-27T08:00:22.951Z,102834.41
2019-03-27T08:01:30.729Z,102836.11
2019-03-27T08:02:38.219Z,102841.60
2019-03-27T08:03:46.112Z,102837.78
2019-03-27T08:04:53.611Z,102839.47
2019-03-27T08:06:01.499Z,102842.53
2019-03-27T08:07:09.393Z,102838.15
2019-03-27T08:08:17.193Z,102833.69
2019-03-27T08:09:24.726Z,102829.09
2019-03-27T08:10:32.614Z,102823.91
2019-03-27T08:11:40.570Z,102827.95
2019-03-27T08:12:48.669Z,102821.88
2019-03-27T08:13:56.112Z,102817.07
2019-03-27T08:15:03.744Z,102820.24
2019-03-27T08:16:11.296Z,102819.09
2019-03-27T08:17:19.039Z,102822.95
2019-03-27T08:18:26.974Z,102822.14
2019-03-27T08:19:34.527Z,102824.42
2019-03-27T08:20:42.019Z,102825.21
2019-03-27T08:21:49.768Z,102825.85
2019-03-27T08:22:57.639Z,102821.31
2019-03-27T08:24:05.243Z,102828.62
2019-03-27T08:25:12.922Z,102828.74
2019-03-27T08:26:20.447Z,102827.92
2019-03-27T08:27:28.190Z,102836.09
2019-03-27T08:28:35.669Z,102833.55
2019-03-27T08:29:43.274Z,102837.22
2019-03-27T08:30:51.147Z,102833.09
2019-03-27T08:31:59.017Z,102840.57
2019-03-27T08:33:06.810Z,102843.61
2019-03-27T08:34:14.307Z,102836.61
2019-03-27T08:35:21.839Z,102841.11
2019-03-27T08:36:29.332Z,102846.40
2019-03-27T08:37:37.223Z,102846.52
2019-03-27T08:38:45.091Z,102848.92
2019-03-27T08:39:53.070Z,102849.58
2019-03-27T08:41:00.653Z,102852.27
2019-03-27T08:42:08.106Z,102850.35
2019-03-27T08:43:21.077Z,102847.40
2019-03-27T08:44:25.150Z,102856.10
2019-03-27T08:45:32.848Z,102853.31
2019-03-27T08:46:40.477Z,102856.44
2019-03-27T08:47:48.656Z,102851.70
2019-03-27T08:48:56.933Z,102857.66
2019-03-27T08:50:05.348Z,102856.60
2019-03-27T08:51:12.935Z,102859.98
2019-03-27T08:52:20.422Z,102854.98
2019-03-27T08:53:27.892Z,102857.53
2019-03-27T08:54:35.429Z,102858.13
2019-03-27T08:55:43.252Z,102862.15
2019-03-27T08:56:51.643Z,102859.76
2019-03-27T08:57:59.123Z,102862.22
2019-03-27T08:59:06.618Z,102865.66
2019-03-27T09:00:15.091Z,102870.95
2019-03-27T09:01:22.983Z,102866.41
2019-03-27T09:02:30.513Z,102865.56
2019-03-27T09:03:38.383Z,102864.48
2019-03-27T09:04:46.168Z,102862.53
2019-03-27T09:05:53.733Z,102860.05
2019-03-27T09:07:03.289Z,102869.56
2019-03-27T09:08:11.195Z,102867.49
2019-03-27T09:09:18.672Z,102872.59
2019-03-27T09:10:26.349Z,102871.81
2019-03-27T09:11:34.439Z,102872.59
2019-03-27T09:12:42.257Z,102868.38
2019-03-27T09:13:50.638Z,102870.20
2019-03-27T09:14:58.177Z,102867.76
2019-03-27T09:16:06.236Z,102874.53
2019-03-27T09:17:13.798Z,102872.36
2019-03-27T09:18:21.266Z,102868.92
2019-03-27T09:19:35.644Z,102871.13
2019-03-27T09:20:38.204Z,102875.53
2019-03-27T09:21:45.717Z,102873.06
2019-03-27T09:22:53.225Z,102877.82
2019-03-27T09:24:00.795Z,102880.50
2019-03-27T09:25:08.710Z,102886.15
2019-03-27T09:26:16.159Z,102885.33
2019-03-27T09:27:23.671Z,102880.34
2019-03-27T09:28:31.554Z,102884.69
2019-03-27T09:29:39.091Z,102892.28
2019-03-27T09:30:47.005Z,102882.00
2019-03-27T09:31:54.555Z,102889.83
2019-03-27T09:33:02.072Z,102894.48
2019-03-27T09:34:10.242Z,102891.97
2019-03-27T09:35:17.827Z,102888.97
2019-03-27T09:36:25.406Z,102886.08
2019-03-27T09:37:33.033Z,102888.08
2019-03-27T09:38:40.514Z,102887.18
2019-03-27T09:39:48.034Z,102886.73
2019-03-27T09:40:55.528Z,102894.05
2019-03-27T09:42:03.194Z,102895.34
2019-03-27T09:43:11.170Z,102894.44
2019-03-27T09:44:19.676Z,102894.95
2019-03-27T09:45:27.333Z,102895.45
2019-03-27T09:46:34.866Z,102892.48
2019-03-27T09:47:42.396Z,102891.23
2019-03-27T09:48:49.909Z,102893.78
2019-03-27T09:49:57.894Z,102895.03
2019-03-27T09:51:05.391Z,102899.67
2019-03-27T09:52:12.861Z,102893.78
2019-03-27T09:53:20.359Z,102900.17
2019-03-27T09:54:27.836Z,102901.47
2019-03-27T09:55:35.709Z,102903.17
2019-03-27T09:56:43.239Z,102900.64
2019-03-27T09:57:50.692Z,102901.11
2019-03-27T09:58:58.213Z,102900.25
2019-03-27T10:00:07.513Z,102897.62
2019-03-27T10:01:15.085Z,102902.64
2019-03-27T10:02:23.082Z,102901.39
2019-03-27T10:03:30.587Z,102899.82
2019-03-27T10:04:38.553Z,102911.78
2019-03-27T10:05:46.089Z,102903.62
2019-03-27T10:06:53.709Z,102906.49
2019-03-27T10:08:01.225Z,102906.05
2019-03-27T10:09:10.624Z,102899.66
2019-03-27T10:10:18.283Z,102906.60
2019-03-27T10:11:26.053Z,102902.82
2019-03-27T10:12:34.085Z,102902.89
2019-03-27T10:13:41.571Z,102896.93
2019-03-27T10:14:49.087Z,102895.69
2019-03-27T10:15:57.099Z,102895.24
2019-03-27T10:17:04.665Z,102887.99
2019-03-27T10:18:13.181Z,102898.32
2019-03-27T10:19:20.700Z,102892.33
2019-03-27T10:20:28.260Z,102893.17
2019-03-27T10:21:35.792Z,102886.77
2019-03-27T10:22:43.599Z,102886.33
2019-03-27T10:23:51.427Z,102891.52
2019-03-27T10:24:58.946Z,102894.95
2019-03-27T10:26:06.521Z,102891.98
2019-03-27T10:27:14.736Z,102892.44
2019-03-27T10:28:22.329Z,102878.72
2019-03-27T10:29:29.826Z,102883.02
2019-03-27T10:30:37.676Z,102873.20
2019-03-27T10:31:45.296Z,102874.91
2019-03-27T10:32:53.124Z,102876.21
2019-03-27T10:34:01.158Z,102872.36
2019-03-27T10:35:09.607Z,102873.64
2019-03-27T10:36:17.173Z,102879.20
2019-03-27T10:37:24.650Z,102880.92
2019-03-27T10:38:32.215Z,102885.66
2019-03-27T10:39:39.849Z,102889.11
2019-03-27T10:40:47.897Z,102889.08
2019-03-27T10:41:55.858Z,102881.36
2019-03-27T10:43:03.408Z,102885.17
2019-03-27T10:44:10.980Z,102880.87
2019-03-27T10:45:18.782Z,102880.82
2019-03-27T10:46:26.264Z,102886.81
2019-03-27T10:47:34.695Z,102886.03
2019-03-27T10:48:52.558Z,102883.06
2019-03-27T10:49:51.797Z,102884.36
2019-03-27T10:51:00.140Z,102886.95
2019-03-27T10:52:07.867Z,102889.95
2019-03-27T10:53:15.783Z,102887.83
2019-03-27T10:54:23.690Z,102890.02
2019-03-27T10:55:34.461Z,102893.89
2019-03-27T10:56:41.394Z,102893.03
2019-03-27T10:57:48.922Z,102897.74
2019-03-27T10:58:57.259Z,102896.90
2019-03-27T11:00:06.082Z,102898.63
2019-03-27T11:01:13.637Z,102897.31
2019-03-27T11:02:21.111Z,102893.45
2019-03-27T11:03:28.573Z,102893.88
2019-03-27T11:04:36.233Z,102894.30
2019-03-27T11:05:43.842Z,102900.34
2019-03-27T11:06:52.065Z,102895.61
2019-03-27T11:07:59.527Z,102898.16
2019-03-27T11:09:10.379Z,102903.30
2019-03-27T11:10:18.139Z,102907.98
2019-03-27T11:11:25.637Z,102909.23
2019-03-27T11:12:33.305Z,102914.36
2019-03-27T11:13:41.107Z,102916.05
2019-03-27T11:14:48.562Z,102918.94
2019-03-27T11:15:56.057Z,102912.39
2019-03-27T11:17:03.563Z,102911.41
2019-03-27T11:18:11.483Z,102914.70
2019-03-27T11:19:19.290Z,102907.66
2019-03-27T11:20:31.173Z,102913.72
2019-03-27T11:21:36.422Z,102915.59
2019-03-27T11:22:44.105Z,102919.54
2019-03-27T11:23:52.237Z,102913.67
2019-03-27T11:25:00.108Z,102909.52
2019-03-27T11:26:07.952Z,102914.76
2019-03-27T11:27:15.760Z,102916.52
2019-03-27T11:28:23.612Z,102908.77
2019-03-27T11:29:31.127Z,102907.06
2019-03-27T11:30:41.751Z,102912.19
2019-03-27T11:31:49.595Z,102908.32
2019-03-27T11:32:57.478Z,102906.18
2019-03-27T11:34:05.033Z,102904.92
2019-03-27T11:35:12.971Z,102901.91
2019-03-27T11:36:20.493Z,102896.34
2019-03-27T11:37:28.311Z,102892.11
2019-03-27T11:38:37.506Z,102894.21
2019-03-27T11:39:45.234Z,102893.30
2019-03-27T11:40:52.757Z,102892.45
2019-03-27T11:42:01.014Z,102901.88
2019-03-27T11:43:09.123Z,102900.58
2019-03-27T11:44:17.245Z,102895.83
2019-03-27T11:45:24.761Z,102895.77
2019-03-27T11:46:32.576Z,102887.94
2019-03-27T11:47:40.068Z,102892.63
2019-03-27T11:48:47.555Z,102893.88
2019-03-27T11:49:55.009Z,102890.89
2019-03-27T11:51:03.177Z,102889.33
2019-03-27T11:52:11.203Z,102890.52
2019-03-27T11:53:19.019Z,102888.84
2019-03-27T11:54:26.754Z,102886.70
2019-03-27T11:55:34.327Z,102891.06
2019-03-27T11:56:41.784Z,102895.77
2019-03-27T11:57:50.070Z,102891.11
2019-03-27T11:58:57.628Z,102888.98
2019-03-27T12:00:06.246Z,102896.35
2019-03-27T12:01:13.690Z,102893.83
2019-03-27T12:02:21.178Z,102889.11
2019-03-27T12:03:30.018Z,102884.86
2019-03-27T12:04:37.873Z,102886.97
2019-03-27T12:05:45.818Z,102890.85
2019-03-27T12:06:53.620Z,102891.25
2019-03-27T12:08:01.176Z,102892.95
2019-03-27T12:09:10.473Z,102887.41
2019-03-27T12:10:18.388Z,102884.01
2019-03-27T12:11:25.952Z,102884.43
2019-03-27T12:12:33.444Z,102884.44
2019-03-27T12:13:40.953Z,102881.84
2019-03-27T12:14:48.806Z,102885.68
2019-03-27T12:15:56.643Z,102886.95
2019-03-27T12:17:04.519Z,102886.52
2019-03-27T12:18:16.821Z,102883.43
2019-03-27T12:19:24.688Z,102885.13
2019-03-27T12:20:32.566Z,102881.65
2019-03-27T12:21:40.059Z,102886.36
2019-03-27T12:22:57.320Z,102882.44
2019-03-27T12:23:58.415Z,102882.83
2019-03-27T12:25:06.894Z,102877.62
2019-03-27T12:26:14.376Z,102881.43
2019-03-27T12:27:22.215Z,102880.07
2019-03-27T12:28:30.436Z,102886.45
2019-03-27T12:29:38.533Z,102883.47
2019-03-27T12:30:46.097Z,102873.46
2019-03-27T12:31:54.076Z,102876.94
2019-03-27T12:33:02.395Z,102880.77
2019-03-27T12:34:10.216Z,102873.91
2019-03-27T12:35:18.236Z,102875.07
2019-03-27T12:36:25.709Z,102864.73
2019-03-27T12:37:33.678Z,102860.93
2019-03-27T12:38:41.749Z,102867.33
2019-03-27T12:39:49.308Z,102866.84
2019-03-27T12:40:56.842Z,102871.44
2019-03-27T12:42:04.420Z,102874.13
2019-03-27T12:43:11.919Z,102873.16
2019-03-27T12:44:19.814Z,102869.22
2019-03-27T12:45:27.569Z,102874.91
2019-03-27T12:46:35.549Z,102871.77
2019-03-27T12:47:43.383Z,102872.49
2019-03-27T12:48:51.083Z,102867.88
2019-03-27T12:49:58.589Z,102872.48
2019-03-27T12:51:12.702Z,102875.35
2019-03-27T12:52:16.114Z,102873.03
2019-03-27T12:53:23.956Z,102876.76
2019-03-27T12:54:31.637Z,102871.33